sensor_id;sensor_type;location;lat;lon;timestamp;temperature;humidity
54202;DHT22;40108;53.152;5.844;2024-01-30T00:01:26;5.50;95.70
54202;DHT22;40108;53.152;5.844;2024-01-30T00:03:52;5.50;95.70
54202;DHT22;40108;53.152;5.844;2024-01-30T00:06:21;5.40;95.70
54202;DHT22;40108;53.152;5.844;2024-01-30T00:08:46;5.40;95.70
54202;DHT22;40108;53.152;5.844;2024-01-30T00:11:14;5.40;95.70
54202;DHT22;40108;53.152;5.844;2024-01-30T00:13:40;5.30;95.70
54202;DHT22;40108;53.152;5.844;2024-01-30T00:16:07;5.30;95.70
54202;DHT22;40108;53.152;5.844;2024-01-30T00:18:32;5.30;95.80
54202;DHT22;40108;53.152;5.844;2024-01-30T00:20:58;5.40;95.80
54202;DHT22;40108;53.152;5.844;2024-01-30T00:23:23;5.30;95.80
54202;DHT22;40108;53.152;5.844;2024-01-30T00:25:50;5.30;95.90
54202;DHT22;40108;53.152;5.844;2024-01-30T00:28:16;5.30;95.90
54202;DHT22;40108;53.152;5.844;2024-01-30T00:30:42;5.30;95.90
54202;DHT22;40108;53.152;5.844;2024-01-30T00:33:08;5.30;95.90
54202;DHT22;40108;53.152;5.844;2024-01-30T00:35:34;5.30;95.90
54202;DHT22;40108;53.152;5.844;2024-01-30T00:38:00;5.20;95.90
54202;DHT22;40108;53.152;5.844;2024-01-30T00:40:26;5.20;96.00
54202;DHT22;40108;53.152;5.844;2024-01-30T00:42:51;5.20;96.00
54202;DHT22;40108;53.152;5.844;2024-01-30T00:45:17;5.20;96.00
54202;DHT22;40108;53.152;5.844;2024-01-30T00:47:43;5.20;96.00
54202;DHT22;40108;53.152;5.844;2024-01-30T00:50:09;5.20;96.00
54202;DHT22;40108;53.152;5.844;2024-01-30T00:52:35;5.20;96.00
54202;DHT22;40108;53.152;5.844;2024-01-30T00:55:01;5.20;96.00
54202;DHT22;40108;53.152;5.844;2024-01-30T00:57:28;5.10;96.10
54202;DHT22;40108;53.152;5.844;2024-01-30T00:59:53;5.10;96.10
54202;DHT22;40108;53.152;5.844;2024-01-30T01:02:19;5.10;96.10
54202;DHT22;40108;53.152;5.844;2024-01-30T01:04:45;5.10;96.20
54202;DHT22;40108;53.152;5.844;2024-01-30T01:07:11;5.10;96.20
54202;DHT22;40108;53.152;5.844;2024-01-30T01:09:37;5.10;96.20
54202;DHT22;40108;53.152;5.844;2024-01-30T01:12:03;5.00;96.20
54202;DHT22;40108;53.152;5.844;2024-01-30T01:14:29;5.00;96.20
54202;DHT22;40108;53.152;5.844;2024-01-30T01:16:55;5.00;96.20
54202;DHT22;40108;53.152;5.844;2024-01-30T01:19:21;5.00;96.20
54202;DHT22;40108;53.152;5.844;2024-01-30T01:21:46;5.00;96.20
54202;DHT22;40108;53.152;5.844;2024-01-30T01:24:12;5.00;96.20
54202;DHT22;40108;53.152;5.844;2024-01-30T01:26:38;5.00;96.30
54202;DHT22;40108;53.152;5.844;2024-01-30T01:29:03;5.00;96.40
54202;DHT22;40108;53.152;5.844;2024-01-30T01:31:37;5.00;96.40
54202;DHT22;40108;53.152;5.844;2024-01-30T01:34:12;5.00;96.40
54202;DHT22;40108;53.152;5.844;2024-01-30T01:36:39;5.10;96.60
54202;DHT22;40108;53.152;5.844;2024-01-30T01:39:05;5.10;96.60
54202;DHT22;40108;53.152;5.844;2024-01-30T01:41:31;5.20;96.60
54202;DHT22;40108;53.152;5.844;2024-01-30T01:43:57;5.20;96.70
54202;DHT22;40108;53.152;5.844;2024-01-30T01:46:26;5.20;96.70
54202;DHT22;40108;53.152;5.844;2024-01-30T01:48:52;5.20;96.70
54202;DHT22;40108;53.152;5.844;2024-01-30T01:51:17;5.30;96.80
54202;DHT22;40108;53.152;5.844;2024-01-30T01:53:44;5.30;96.80
54202;DHT22;40108;53.152;5.844;2024-01-30T01:56:10;5.30;96.80
54202;DHT22;40108;53.152;5.844;2024-01-30T01:58:36;5.30;96.80
54202;DHT22;40108;53.152;5.844;2024-01-30T02:01:03;5.40;96.90
54202;DHT22;40108;53.152;5.844;2024-01-30T02:03:30;5.40;96.90
54202;DHT22;40108;53.152;5.844;2024-01-30T02:05:56;5.50;97.00
54202;DHT22;40108;53.152;5.844;2024-01-30T02:08:23;5.50;97.00
54202;DHT22;40108;53.152;5.844;2024-01-30T02:10:49;5.60;97.20
54202;DHT22;40108;53.152;5.844;2024-01-30T02:13:15;5.70;97.20
54202;DHT22;40108;53.152;5.844;2024-01-30T02:15:40;5.70;97.20
54202;DHT22;40108;53.152;5.844;2024-01-30T02:18:06;5.80;97.20
54202;DHT22;40108;53.152;5.844;2024-01-30T02:20:35;5.90;97.20
54202;DHT22;40108;53.152;5.844;2024-01-30T02:23:01;5.90;97.20
54202;DHT22;40108;53.152;5.844;2024-01-30T02:25:39;5.90;97.20
54202;DHT22;40108;53.152;5.844;2024-01-30T02:28:10;6.00;97.20
54202;DHT22;40108;53.152;5.844;2024-01-30T02:30:37;6.00;97.20
54202;DHT22;40108;53.152;5.844;2024-01-30T02:33:03;6.00;97.20
54202;DHT22;40108;53.152;5.844;2024-01-30T02:35:29;6.10;97.20
54202;DHT22;40108;53.152;5.844;2024-01-30T02:37:54;6.10;97.20
54202;DHT22;40108;53.152;5.844;2024-01-30T02:40:20;6.20;97.20
54202;DHT22;40108;53.152;5.844;2024-01-30T02:42:46;6.10;97.10
54202;DHT22;40108;53.152;5.844;2024-01-30T02:45:12;6.20;97.10
54202;DHT22;40108;53.152;5.844;2024-01-30T02:47:39;6.20;97.10
54202;DHT22;40108;53.152;5.844;2024-01-30T02:50:05;6.20;97.10
54202;DHT22;40108;53.152;5.844;2024-01-30T02:52:30;6.20;97.10
54202;DHT22;40108;53.152;5.844;2024-01-30T02:54:56;6.20;97.00
54202;DHT22;40108;53.152;5.844;2024-01-30T02:57:22;6.20;97.00
54202;DHT22;40108;53.152;5.844;2024-01-30T02:59:47;6.20;97.00
54202;DHT22;40108;53.152;5.844;2024-01-30T03:02:13;6.20;97.00
54202;DHT22;40108;53.152;5.844;2024-01-30T03:04:41;6.20;96.90
54202;DHT22;40108;53.152;5.844;2024-01-30T03:07:07;6.20;97.00
54202;DHT22;40108;53.152;5.844;2024-01-30T03:09:32;6.20;96.90
54202;DHT22;40108;53.152;5.844;2024-01-30T03:11:59;6.20;96.90
54202;DHT22;40108;53.152;5.844;2024-01-30T03:14:24;6.20;96.90
54202;DHT22;40108;53.152;5.844;2024-01-30T03:16:50;6.20;96.90
54202;DHT22;40108;53.152;5.844;2024-01-30T03:19:16;6.20;96.80
54202;DHT22;40108;53.152;5.844;2024-01-30T03:21:41;6.10;96.80
54202;DHT22;40108;53.152;5.844;2024-01-30T03:24:07;6.10;96.80
54202;DHT22;40108;53.152;5.844;2024-01-30T03:26:33;6.10;96.80
54202;DHT22;40108;53.152;5.844;2024-01-30T03:28:58;6.10;96.80
54202;DHT22;40108;53.152;5.844;2024-01-30T03:31:24;6.10;96.80
54202;DHT22;40108;53.152;5.844;2024-01-30T03:33:50;6.00;96.80
54202;DHT22;40108;53.152;5.844;2024-01-30T03:36:16;6.00;96.80
54202;DHT22;40108;53.152;5.844;2024-01-30T03:38:41;6.00;96.80
54202;DHT22;40108;53.152;5.844;2024-01-30T03:41:08;6.00;96.80
54202;DHT22;40108;53.152;5.844;2024-01-30T03:43:35;6.10;96.90
54202;DHT22;40108;53.152;5.844;2024-01-30T03:46:01;6.10;96.90
54202;DHT22;40108;53.152;5.844;2024-01-30T03:48:27;6.10;96.90
54202;DHT22;40108;53.152;5.844;2024-01-30T03:50:53;6.10;96.90
54202;DHT22;40108;53.152;5.844;2024-01-30T03:53:18;6.10;96.90
54202;DHT22;40108;53.152;5.844;2024-01-30T03:55:44;6.20;96.90
54202;DHT22;40108;53.152;5.844;2024-01-30T03:58:10;6.20;96.90
54202;DHT22;40108;53.152;5.844;2024-01-30T04:00:35;6.20;96.90
54202;DHT22;40108;53.152;5.844;2024-01-30T04:03:01;6.20;96.90
54202;DHT22;40108;53.152;5.844;2024-01-30T04:05:27;6.20;96.90
54202;DHT22;40108;53.152;5.844;2024-01-30T04:07:52;6.20;97.00
54202;DHT22;40108;53.152;5.844;2024-01-30T04:10:18;6.30;97.00
54202;DHT22;40108;53.152;5.844;2024-01-30T04:12:44;6.30;97.00
54202;DHT22;40108;53.152;5.844;2024-01-30T04:15:09;6.30;97.00
54202;DHT22;40108;53.152;5.844;2024-01-30T04:17:35;6.40;96.90
54202;DHT22;40108;53.152;5.844;2024-01-30T04:20:01;6.40;96.90
54202;DHT22;40108;53.152;5.844;2024-01-30T04:22:26;6.40;96.90
54202;DHT22;40108;53.152;5.844;2024-01-30T04:24:52;6.40;96.90
54202;DHT22;40108;53.152;5.844;2024-01-30T04:27:18;6.40;96.90
54202;DHT22;40108;53.152;5.844;2024-01-30T04:29:43;6.50;96.90
54202;DHT22;40108;53.152;5.844;2024-01-30T04:32:10;6.40;96.80
54202;DHT22;40108;53.152;5.844;2024-01-30T04:34:36;6.50;96.80
54202;DHT22;40108;53.152;5.844;2024-01-30T04:37:02;6.50;96.80
54202;DHT22;40108;53.152;5.844;2024-01-30T04:39:28;6.40;96.70
54202;DHT22;40108;53.152;5.844;2024-01-30T04:41:54;6.40;96.70
54202;DHT22;40108;53.152;5.844;2024-01-30T04:44:19;6.40;96.70
54202;DHT22;40108;53.152;5.844;2024-01-30T04:46:45;6.40;96.70
54202;DHT22;40108;53.152;5.844;2024-01-30T04:49:11;6.40;96.70
54202;DHT22;40108;53.152;5.844;2024-01-30T04:51:36;6.40;96.70
54202;DHT22;40108;53.152;5.844;2024-01-30T04:54:02;6.40;96.70
54202;DHT22;40108;53.152;5.844;2024-01-30T04:56:28;6.40;96.70
54202;DHT22;40108;53.152;5.844;2024-01-30T04:58:53;6.40;96.60
54202;DHT22;40108;53.152;5.844;2024-01-30T05:01:19;6.40;96.70
54202;DHT22;40108;53.152;5.844;2024-01-30T05:03:45;6.40;96.70
54202;DHT22;40108;53.152;5.844;2024-01-30T05:06:10;6.40;96.70
54202;DHT22;40108;53.152;5.844;2024-01-30T05:08:36;6.40;96.60
54202;DHT22;40108;53.152;5.844;2024-01-30T05:11:02;6.40;96.60
54202;DHT22;40108;53.152;5.844;2024-01-30T05:13:31;6.40;96.70
54202;DHT22;40108;53.152;5.844;2024-01-30T05:15:57;6.40;96.60
54202;DHT22;40108;53.152;5.844;2024-01-30T05:18:23;6.40;96.70
54202;DHT22;40108;53.152;5.844;2024-01-30T05:20:50;6.40;96.70
54202;DHT22;40108;53.152;5.844;2024-01-30T05:23:16;6.40;96.70
54202;DHT22;40108;53.152;5.844;2024-01-30T05:25:41;6.40;96.70
54202;DHT22;40108;53.152;5.844;2024-01-30T05:28:07;6.50;96.70
54202;DHT22;40108;53.152;5.844;2024-01-30T05:30:33;6.40;96.70
54202;DHT22;40108;53.152;5.844;2024-01-30T05:32:59;6.50;96.70
54202;DHT22;40108;53.152;5.844;2024-01-30T05:35:24;6.40;96.60
54202;DHT22;40108;53.152;5.844;2024-01-30T05:37:50;6.50;96.60
54202;DHT22;40108;53.152;5.844;2024-01-30T05:40:16;6.40;96.60
54202;DHT22;40108;53.152;5.844;2024-01-30T05:42:42;6.50;96.60
54202;DHT22;40108;53.152;5.844;2024-01-30T05:45:08;6.50;96.70
54202;DHT22;40108;53.152;5.844;2024-01-30T05:47:35;6.50;96.60
54202;DHT22;40108;53.152;5.844;2024-01-30T05:50:00;6.50;96.60
54202;DHT22;40108;53.152;5.844;2024-01-30T05:52:26;6.50;96.60
54202;DHT22;40108;53.152;5.844;2024-01-30T05:54:52;6.50;96.60
54202;DHT22;40108;53.152;5.844;2024-01-30T05:57:17;6.50;96.60
54202;DHT22;40108;53.152;5.844;2024-01-30T05:59:44;6.50;96.60
54202;DHT22;40108;53.152;5.844;2024-01-30T06:02:13;6.50;96.60
54202;DHT22;40108;53.152;5.844;2024-01-30T06:04:39;6.60;96.60
54202;DHT22;40108;53.152;5.844;2024-01-30T06:07:04;6.60;96.60
54202;DHT22;40108;53.152;5.844;2024-01-30T06:09:32;6.60;96.60
54202;DHT22;40108;53.152;5.844;2024-01-30T06:11:58;6.60;96.60
54202;DHT22;40108;53.152;5.844;2024-01-30T06:14:24;6.60;96.60
54202;DHT22;40108;53.152;5.844;2024-01-30T06:16:49;6.60;96.50
54202;DHT22;40108;53.152;5.844;2024-01-30T06:19:15;6.60;96.50
54202;DHT22;40108;53.152;5.844;2024-01-30T06:21:41;6.60;96.50
54202;DHT22;40108;53.152;5.844;2024-01-30T06:24:07;6.60;96.50
54202;DHT22;40108;53.152;5.844;2024-01-30T06:26:33;6.60;96.50
54202;DHT22;40108;53.152;5.844;2024-01-30T06:28:59;6.70;96.50
54202;DHT22;40108;53.152;5.844;2024-01-30T06:31:25;6.60;96.50
54202;DHT22;40108;53.152;5.844;2024-01-30T06:33:50;6.60;96.40
54202;DHT22;40108;53.152;5.844;2024-01-30T06:36:16;6.70;96.40
54202;DHT22;40108;53.152;5.844;2024-01-30T06:38:42;6.70;96.40
54202;DHT22;40108;53.152;5.844;2024-01-30T06:41:07;6.70;96.40
54202;DHT22;40108;53.152;5.844;2024-01-30T06:43:33;6.70;96.40
54202;DHT22;40108;53.152;5.844;2024-01-30T06:45:59;6.70;96.50
54202;DHT22;40108;53.152;5.844;2024-01-30T06:48:25;6.70;96.40
54202;DHT22;40108;53.152;5.844;2024-01-30T06:50:53;6.70;96.40
54202;DHT22;40108;53.152;5.844;2024-01-30T06:53:19;6.70;96.40
54202;DHT22;40108;53.152;5.844;2024-01-30T06:55:45;6.80;96.40
54202;DHT22;40108;53.152;5.844;2024-01-30T06:58:11;6.80;96.40
54202;DHT22;40108;53.152;5.844;2024-01-30T07:00:37;6.80;96.40
54202;DHT22;40108;53.152;5.844;2024-01-30T07:03:02;6.80;96.40
54202;DHT22;40108;53.152;5.844;2024-01-30T07:05:28;6.80;96.40
54202;DHT22;40108;53.152;5.844;2024-01-30T07:07:54;6.80;96.40
54202;DHT22;40108;53.152;5.844;2024-01-30T07:10:19;6.90;96.40
54202;DHT22;40108;53.152;5.844;2024-01-30T07:12:45;6.90;96.40
54202;DHT22;40108;53.152;5.844;2024-01-30T07:15:11;7.00;96.40
54202;DHT22;40108;53.152;5.844;2024-01-30T07:17:37;7.00;96.40
54202;DHT22;40108;53.152;5.844;2024-01-30T07:20:03;7.00;96.40
54202;DHT22;40108;53.152;5.844;2024-01-30T07:22:30;7.00;96.40
54202;DHT22;40108;53.152;5.844;2024-01-30T07:24:56;7.10;96.40
54202;DHT22;40108;53.152;5.844;2024-01-30T07:27:22;7.10;96.30
54202;DHT22;40108;53.152;5.844;2024-01-30T07:29:48;7.10;96.30
54202;DHT22;40108;53.152;5.844;2024-01-30T07:32:13;7.20;96.30
54202;DHT22;40108;53.152;5.844;2024-01-30T07:34:40;7.20;96.20
54202;DHT22;40108;53.152;5.844;2024-01-30T07:37:06;7.20;96.20
54202;DHT22;40108;53.152;5.844;2024-01-30T07:39:34;7.20;96.20
54202;DHT22;40108;53.152;5.844;2024-01-30T07:42:00;7.20;96.10
54202;DHT22;40108;53.152;5.844;2024-01-30T07:44:25;7.20;96.10
54202;DHT22;40108;53.152;5.844;2024-01-30T07:46:51;7.20;96.10
54202;DHT22;40108;53.152;5.844;2024-01-30T07:49:17;7.20;96.10
54202;DHT22;40108;53.152;5.844;2024-01-30T07:51:42;7.20;96.10
54202;DHT22;40108;53.152;5.844;2024-01-30T07:54:15;7.20;96.00
54202;DHT22;40108;53.152;5.844;2024-01-30T07:56:41;7.20;96.00
54202;DHT22;40108;53.152;5.844;2024-01-30T07:59:11;7.10;96.00
54202;DHT22;40108;53.152;5.844;2024-01-30T08:01:37;7.10;96.00
54202;DHT22;40108;53.152;5.844;2024-01-30T08:04:02;7.10;96.00
54202;DHT22;40108;53.152;5.844;2024-01-30T08:06:28;7.10;96.00
54202;DHT22;40108;53.152;5.844;2024-01-30T08:08:54;7.10;96.10
54202;DHT22;40108;53.152;5.844;2024-01-30T08:11:22;7.10;96.10
54202;DHT22;40108;53.152;5.844;2024-01-30T08:13:53;7.20;96.20
54202;DHT22;40108;53.152;5.844;2024-01-30T08:16:18;7.20;96.30
54202;DHT22;40108;53.152;5.844;2024-01-30T08:18:44;7.30;96.30
54202;DHT22;40108;53.152;5.844;2024-01-30T08:21:10;7.40;96.50
54202;DHT22;40108;53.152;5.844;2024-01-30T08:23:35;7.50;96.50
54202;DHT22;40108;53.152;5.844;2024-01-30T08:26:01;7.60;96.60
54202;DHT22;40108;53.152;5.844;2024-01-30T08:28:29;7.70;96.60
54202;DHT22;40108;53.152;5.844;2024-01-30T08:30:55;7.80;96.50
54202;DHT22;40108;53.152;5.844;2024-01-30T08:33:21;7.90;96.50
54202;DHT22;40108;53.152;5.844;2024-01-30T08:35:46;7.90;96.50
54202;DHT22;40108;53.152;5.844;2024-01-30T08:38:12;7.90;96.50
54202;DHT22;40108;53.152;5.844;2024-01-30T08:40:38;8.00;96.40
54202;DHT22;40108;53.152;5.844;2024-01-30T08:43:03;8.10;96.40
54202;DHT22;40108;53.152;5.844;2024-01-30T08:45:29;8.10;96.40
54202;DHT22;40108;53.152;5.844;2024-01-30T08:47:56;8.20;96.40
54202;DHT22;40108;53.152;5.844;2024-01-30T08:50:22;8.30;96.40
54202;DHT22;40108;53.152;5.844;2024-01-30T08:52:47;8.30;96.30
54202;DHT22;40108;53.152;5.844;2024-01-30T08:55:13;8.40;96.30
54202;DHT22;40108;53.152;5.844;2024-01-30T08:57:39;8.40;96.20
54202;DHT22;40108;53.152;5.844;2024-01-30T09:00:05;8.40;96.10
54202;DHT22;40108;53.152;5.844;2024-01-30T09:02:32;8.40;96.10
54202;DHT22;40108;53.152;5.844;2024-01-30T09:04:58;8.40;96.00
54202;DHT22;40108;53.152;5.844;2024-01-30T09:07:24;8.40;95.90
54202;DHT22;40108;53.152;5.844;2024-01-30T09:09:49;8.40;95.90
54202;DHT22;40108;53.152;5.844;2024-01-30T09:12:15;8.50;95.90
54202;DHT22;40108;53.152;5.844;2024-01-30T09:14:41;8.50;95.90
54202;DHT22;40108;53.152;5.844;2024-01-30T09:17:07;8.60;95.90
54202;DHT22;40108;53.152;5.844;2024-01-30T09:19:33;8.60;95.90
54202;DHT22;40108;53.152;5.844;2024-01-30T09:21:59;8.70;95.90
54202;DHT22;40108;53.152;5.844;2024-01-30T09:24:26;8.70;95.90
54202;DHT22;40108;53.152;5.844;2024-01-30T09:26:52;8.80;95.80
54202;DHT22;40108;53.152;5.844;2024-01-30T09:29:17;8.80;95.80
54202;DHT22;40108;53.152;5.844;2024-01-30T09:31:47;8.90;95.70
54202;DHT22;40108;53.152;5.844;2024-01-30T09:34:13;8.90;95.60
54202;DHT22;40108;53.152;5.844;2024-01-30T09:36:39;9.00;95.60
54202;DHT22;40108;53.152;5.844;2024-01-30T09:39:05;8.90;95.50
54202;DHT22;40108;53.152;5.844;2024-01-30T09:41:55;8.90;95.40
54202;DHT22;40108;53.152;5.844;2024-01-30T09:44:25;8.90;95.40
54202;DHT22;40108;53.152;5.844;2024-01-30T09:46:53;8.90;95.30
54202;DHT22;40108;53.152;5.844;2024-01-30T09:49:20;8.90;95.30
54202;DHT22;40108;53.152;5.844;2024-01-30T09:51:46;8.90;95.30
54202;DHT22;40108;53.152;5.844;2024-01-30T09:54:14;8.90;95.20
54202;DHT22;40108;53.152;5.844;2024-01-30T09:56:40;8.90;95.20
54202;DHT22;40108;53.152;5.844;2024-01-30T09:59:06;8.90;95.20
54202;DHT22;40108;53.152;5.844;2024-01-30T10:01:34;8.90;95.20
54202;DHT22;40108;53.152;5.844;2024-01-30T10:04:00;8.90;95.20
54202;DHT22;40108;53.152;5.844;2024-01-30T10:06:26;8.90;95.30
54202;DHT22;40108;53.152;5.844;2024-01-30T10:08:53;9.00;95.30
54202;DHT22;40108;53.152;5.844;2024-01-30T10:11:18;9.10;95.40
54202;DHT22;40108;53.152;5.844;2024-01-30T10:13:44;9.10;95.40
54202;DHT22;40108;53.152;5.844;2024-01-30T10:16:10;9.20;95.40
54202;DHT22;40108;53.152;5.844;2024-01-30T10:18:35;9.20;95.20
54202;DHT22;40108;53.152;5.844;2024-01-30T10:21:01;9.20;95.10
54202;DHT22;40108;53.152;5.844;2024-01-30T10:23:27;9.20;95.00
54202;DHT22;40108;53.152;5.844;2024-01-30T10:25:52;9.20;94.90
54202;DHT22;40108;53.152;5.844;2024-01-30T10:28:18;9.20;94.80
54202;DHT22;40108;53.152;5.844;2024-01-30T10:30:44;9.20;94.70
54202;DHT22;40108;53.152;5.844;2024-01-30T10:33:10;9.20;94.60
54202;DHT22;40108;53.152;5.844;2024-01-30T10:35:35;9.20;94.50
54202;DHT22;40108;53.152;5.844;2024-01-30T10:38:01;9.20;94.50
54202;DHT22;40108;53.152;5.844;2024-01-30T10:40:28;9.20;94.50
54202;DHT22;40108;53.152;5.844;2024-01-30T10:42:55;9.10;94.40
54202;DHT22;40108;53.152;5.844;2024-01-30T10:45:22;9.10;94.40
54202;DHT22;40108;53.152;5.844;2024-01-30T10:47:54;9.10;94.40
54202;DHT22;40108;53.152;5.844;2024-01-30T10:50:23;9.10;94.40
54202;DHT22;40108;53.152;5.844;2024-01-30T10:52:50;9.00;94.30
54202;DHT22;40108;53.152;5.844;2024-01-30T10:55:18;9.10;94.30
54202;DHT22;40108;53.152;5.844;2024-01-30T10:57:43;9.00;94.20
54202;DHT22;40108;53.152;5.844;2024-01-30T11:00:11;9.00;94.20
54202;DHT22;40108;53.152;5.844;2024-01-30T11:02:45;9.00;94.20
54202;DHT22;40108;53.152;5.844;2024-01-30T11:05:11;9.00;94.30
54202;DHT22;40108;53.152;5.844;2024-01-30T11:07:39;9.10;94.30
54202;DHT22;40108;53.152;5.844;2024-01-30T11:10:06;9.10;94.10
54202;DHT22;40108;53.152;5.844;2024-01-30T11:12:38;9.10;94.00
54202;DHT22;40108;53.152;5.844;2024-01-30T11:15:07;9.10;93.90
54202;DHT22;40108;53.152;5.844;2024-01-30T11:22:53;9.00;93.90
54202;DHT22;40108;53.152;5.844;2024-01-30T11:25:21;9.10;94.00
54202;DHT22;40108;53.152;5.844;2024-01-30T11:27:49;9.10;94.10
54202;DHT22;40108;53.152;5.844;2024-01-30T11:33:05;9.10;94.00
54202;DHT22;40108;53.152;5.844;2024-01-30T11:35:35;9.10;94.00
54202;DHT22;40108;53.152;5.844;2024-01-30T11:38:02;9.00;94.00
54202;DHT22;40108;53.152;5.844;2024-01-30T11:40:29;9.00;94.00
54202;DHT22;40108;53.152;5.844;2024-01-30T11:43:00;9.00;94.00
54202;DHT22;40108;53.152;5.844;2024-01-30T11:45:29;8.90;94.10
54202;DHT22;40108;53.152;5.844;2024-01-30T11:47:55;8.90;94.20
54202;DHT22;40108;53.152;5.844;2024-01-30T11:50:22;8.90;94.20
54202;DHT22;40108;53.152;5.844;2024-01-30T11:52:48;8.90;94.20
54202;DHT22;40108;53.152;5.844;2024-01-30T11:55:14;8.90;94.30
54202;DHT22;40108;53.152;5.844;2024-01-30T11:57:40;8.90;94.40
54202;DHT22;40108;53.152;5.844;2024-01-30T12:00:13;8.80;94.50
54202;DHT22;40108;53.152;5.844;2024-01-30T12:02:40;8.80;94.60
54202;DHT22;40108;53.152;5.844;2024-01-30T12:05:06;8.90;94.70
54202;DHT22;40108;53.152;5.844;2024-01-30T12:07:33;8.90;94.80
54202;DHT22;40108;53.152;5.844;2024-01-30T12:09:59;9.00;94.80
54202;DHT22;40108;53.152;5.844;2024-01-30T12:12:28;9.10;94.70
54202;DHT22;40108;53.152;5.844;2024-01-30T12:14:55;9.10;94.60
54202;DHT22;40108;53.152;5.844;2024-01-30T12:17:31;9.10;94.60
54202;DHT22;40108;53.152;5.844;2024-01-30T12:20:09;9.10;94.60
54202;DHT22;40108;53.152;5.844;2024-01-30T12:22:42;9.10;94.70
54202;DHT22;40108;53.152;5.844;2024-01-30T12:25:12;9.00;94.70
54202;DHT22;40108;53.152;5.844;2024-01-30T12:27:39;9.00;94.70
54202;DHT22;40108;53.152;5.844;2024-01-30T12:30:14;9.00;94.80
54202;DHT22;40108;53.152;5.844;2024-01-30T12:32:44;8.90;94.70
54202;DHT22;40108;53.152;5.844;2024-01-30T12:35:20;9.00;94.80
54202;DHT22;40108;53.152;5.844;2024-01-30T12:37:47;8.90;94.80
54202;DHT22;40108;53.152;5.844;2024-01-30T12:40:16;8.90;94.80
54202;DHT22;40108;53.152;5.844;2024-01-30T12:42:43;8.90;94.90
54202;DHT22;40108;53.152;5.844;2024-01-30T12:45:11;8.90;94.90
54202;DHT22;40108;53.152;5.844;2024-01-30T12:47:38;8.90;95.00
54202;DHT22;40108;53.152;5.844;2024-01-30T12:50:04;8.90;95.00
54202;DHT22;40108;53.152;5.844;2024-01-30T12:52:30;8.90;95.10
54202;DHT22;40108;53.152;5.844;2024-01-30T12:54:56;8.90;95.10
54202;DHT22;40108;53.152;5.844;2024-01-30T12:57:21;8.80;95.10
54202;DHT22;40108;53.152;5.844;2024-01-30T12:59:47;8.80;95.20
54202;DHT22;40108;53.152;5.844;2024-01-30T13:02:13;8.80;95.30
54202;DHT22;40108;53.152;5.844;2024-01-30T13:04:39;8.70;95.30
54202;DHT22;40108;53.152;5.844;2024-01-30T13:07:05;8.70;95.40
54202;DHT22;40108;53.152;5.844;2024-01-30T13:09:31;8.70;95.50
54202;DHT22;40108;53.152;5.844;2024-01-30T13:11:59;8.70;95.60
54202;DHT22;40108;53.152;5.844;2024-01-30T13:14:28;8.70;95.70
54202;DHT22;40108;53.152;5.844;2024-01-30T13:16:53;8.70;95.80
54202;DHT22;40108;53.152;5.844;2024-01-30T13:19:19;8.70;95.80
54202;DHT22;40108;53.152;5.844;2024-01-30T13:21:45;8.60;95.90
54202;DHT22;40108;53.152;5.844;2024-01-30T13:24:10;8.70;96.00
54202;DHT22;40108;53.152;5.844;2024-01-30T13:26:36;8.60;96.00
54202;DHT22;40108;53.152;5.844;2024-01-30T13:29:02;8.60;96.10
54202;DHT22;40108;53.152;5.844;2024-01-30T13:31:29;8.60;96.20
54202;DHT22;40108;53.152;5.844;2024-01-30T13:33:55;8.50;96.20
54202;DHT22;40108;53.152;5.844;2024-01-30T13:36:21;8.50;96.30
54202;DHT22;40108;53.152;5.844;2024-01-30T13:38:47;8.40;96.30
54202;DHT22;40108;53.152;5.844;2024-01-30T13:41:13;8.50;96.30
54202;DHT22;40108;53.152;5.844;2024-01-30T13:43:38;8.50;96.40
54202;DHT22;40108;53.152;5.844;2024-01-30T13:46:04;8.40;96.40
54202;DHT22;40108;53.152;5.844;2024-01-30T13:48:31;8.40;96.50
54202;DHT22;40108;53.152;5.844;2024-01-30T13:50:57;8.40;96.50
54202;DHT22;40108;53.152;5.844;2024-01-30T13:53:22;8.40;96.60
54202;DHT22;40108;53.152;5.844;2024-01-30T13:55:48;8.40;96.60
54202;DHT22;40108;53.152;5.844;2024-01-30T13:58:14;8.40;96.60
54202;DHT22;40108;53.152;5.844;2024-01-30T14:00:40;8.40;96.70
54202;DHT22;40108;53.152;5.844;2024-01-30T14:03:05;8.40;96.70
54202;DHT22;40108;53.152;5.844;2024-01-30T14:05:31;8.40;96.80
54202;DHT22;40108;53.152;5.844;2024-01-30T14:07:58;8.40;96.80
54202;DHT22;40108;53.152;5.844;2024-01-30T14:10:25;8.40;96.80
54202;DHT22;40108;53.152;5.844;2024-01-30T14:12:51;8.40;96.90
54202;DHT22;40108;53.152;5.844;2024-01-30T14:15:16;8.30;96.90
54202;DHT22;40108;53.152;5.844;2024-01-30T14:17:45;8.30;96.90
54202;DHT22;40108;53.152;5.844;2024-01-30T14:20:14;8.30;97.00
54202;DHT22;40108;53.152;5.844;2024-01-30T14:22:40;8.30;97.00
54202;DHT22;40108;53.152;5.844;2024-01-30T14:25:06;8.30;97.00
54202;DHT22;40108;53.152;5.844;2024-01-30T14:27:32;8.30;97.00
54202;DHT22;40108;53.152;5.844;2024-01-30T14:29:58;8.30;97.00
54202;DHT22;40108;53.152;5.844;2024-01-30T14:32:24;8.30;97.00
54202;DHT22;40108;53.152;5.844;2024-01-30T14:34:51;8.30;97.10
54202;DHT22;40108;53.152;5.844;2024-01-30T14:37:21;8.20;97.10
54202;DHT22;40108;53.152;5.844;2024-01-30T14:39:47;8.20;97.10
54202;DHT22;40108;53.152;5.844;2024-01-30T14:42:14;8.30;97.20
54202;DHT22;40108;53.152;5.844;2024-01-30T14:44:40;8.30;97.10
54202;DHT22;40108;53.152;5.844;2024-01-30T14:47:05;8.30;97.20
54202;DHT22;40108;53.152;5.844;2024-01-30T14:49:32;8.20;97.10
54202;DHT22;40108;53.152;5.844;2024-01-30T14:51:57;8.20;97.20
54202;DHT22;40108;53.152;5.844;2024-01-30T14:54:26;8.20;97.20
54202;DHT22;40108;53.152;5.844;2024-01-30T14:56:53;8.20;97.20
54202;DHT22;40108;53.152;5.844;2024-01-30T14:59:19;8.20;97.20
54202;DHT22;40108;53.152;5.844;2024-01-30T15:01:44;8.20;97.20
54202;DHT22;40108;53.152;5.844;2024-01-30T15:04:10;8.20;97.20
54202;DHT22;40108;53.152;5.844;2024-01-30T15:06:36;8.20;97.20
54202;DHT22;40108;53.152;5.844;2024-01-30T15:09:02;8.20;97.20
54202;DHT22;40108;53.152;5.844;2024-01-30T15:11:28;8.20;97.20
54202;DHT22;40108;53.152;5.844;2024-01-30T15:13:54;8.20;97.20
54202;DHT22;40108;53.152;5.844;2024-01-30T15:16:19;8.20;97.20
54202;DHT22;40108;53.152;5.844;2024-01-30T15:18:45;8.20;97.20
54202;DHT22;40108;53.152;5.844;2024-01-30T15:21:11;8.10;97.20
54202;DHT22;40108;53.152;5.844;2024-01-30T15:23:36;8.10;97.20
54202;DHT22;40108;53.152;5.844;2024-01-30T15:26:02;8.10;97.20
54202;DHT22;40108;53.152;5.844;2024-01-30T15:28:38;8.00;97.10
54202;DHT22;40108;53.152;5.844;2024-01-30T15:31:05;8.00;97.10
54202;DHT22;40108;53.152;5.844;2024-01-30T15:33:31;7.90;97.10
54202;DHT22;40108;53.152;5.844;2024-01-30T15:36:01;7.90;97.10
54202;DHT22;40108;53.152;5.844;2024-01-30T15:38:27;7.90;97.10
54202;DHT22;40108;53.152;5.844;2024-01-30T15:40:54;7.80;97.00
54202;DHT22;40108;53.152;5.844;2024-01-30T15:43:20;7.80;97.00
54202;DHT22;40108;53.152;5.844;2024-01-30T15:45:46;7.70;97.00
54202;DHT22;40108;53.152;5.844;2024-01-30T15:48:11;7.70;97.00